createdAt,value
2023-05-13T00:01:19.225Z,3.72
2023-05-13T00:03:45.835Z,2.20
2023-05-13T00:06:12.473Z,4.72
2023-05-13T00:08:39.078Z,2.97
2023-05-13T00:11:05.819Z,7.20
2023-05-13T00:13:32.378Z,4.38
2023-05-13T00:15:58.974Z,3.80
2023-05-13T00:18:25.617Z,3.88
2023-05-13T00:20:52.262Z,4.85
2023-05-13T00:23:18.814Z,3.17
2023-05-13T00:25:45.374Z,3.25
2023-05-13T00:28:11.947Z,2.88
2023-05-13T00:30:38.519Z,3.38
2023-05-13T00:33:05.098Z,4.22
2023-05-13T00:35:31.670Z,4.43
2023-05-13T00:37:58.220Z,4.97
2023-05-13T00:40:24.880Z,3.40
2023-05-13T00:42:51.554Z,2.72
2023-05-13T00:45:18.236Z,5.15
2023-05-13T00:47:44.765Z,4.65
2023-05-13T00:50:11.395Z,2.97
2023-05-13T00:52:38.908Z,6.07
2023-05-13T00:55:05.913Z,5.50
2023-05-13T00:57:32.785Z,3.40
2023-05-13T00:59:59.441Z,2.50
2023-05-13T01:02:39.604Z,3.78
2023-05-13T01:05:27.417Z,4.65
2023-05-13T01:08:11.874Z,3.30
2023-05-13T01:10:44.888Z,2.47
2023-05-13T01:13:16.273Z,4.47
2023-05-13T01:15:49.399Z,3.70
2023-05-13T01:18:25.241Z,3.10
2023-05-13T01:20:51.833Z,4.10
2023-05-13T01:23:18.394Z,5.10
2023-05-13T01:25:44.901Z,3.33
2023-05-13T01:28:11.436Z,2.65
2023-05-13T01:30:38.020Z,3.08
2023-05-13T01:33:04.582Z,4.32
2023-05-13T01:35:31.495Z,4.28
2023-05-13T01:37:58.111Z,3.50
2023-05-13T01:40:32.412Z,3.70
2023-05-13T01:42:59.630Z,3.47
2023-05-13T01:45:28.817Z,3.13
2023-05-13T01:47:55.402Z,3.33
2023-05-13T01:50:22.248Z,5.25
2023-05-13T01:52:49.005Z,3.53
2023-05-13T01:55:15.631Z,3.97
2023-05-13T01:57:42.176Z,4.22
2023-05-13T02:00:09.178Z,5.07
2023-05-13T02:02:35.860Z,4.72
2023-05-13T02:05:02.447Z,4.50
2023-05-13T02:07:28.981Z,4.78
2023-05-13T02:09:55.530Z,4.10
2023-05-13T02:12:22.096Z,3.78
2023-05-13T02:14:48.701Z,3.60
2023-05-13T02:17:15.244Z,3.15
2023-05-13T02:19:41.964Z,4.05
2023-05-13T02:22:08.583Z,5.65
2023-05-13T02:24:35.146Z,4.13
2023-05-13T02:27:01.669Z,4.22
2023-05-13T02:29:36.883Z,4.20
2023-05-13T02:32:03.582Z,3.88
2023-05-13T02:34:30.157Z,6.40
2023-05-13T02:36:56.681Z,3.53
2023-05-13T02:39:23.195Z,3.90
2023-05-13T02:41:49.762Z,5.05
2023-05-13T02:44:16.269Z,5.30
2023-05-13T02:46:42.856Z,4.47
2023-05-13T02:49:09.490Z,4.45
2023-05-13T02:51:36.082Z,3.53
2023-05-13T02:54:02.660Z,3.85
2023-05-13T02:56:29.214Z,5.22
2023-05-13T02:58:55.786Z,3.58
2023-05-13T03:01:22.383Z,4.22
2023-05-13T03:03:48.957Z,5.20
2023-05-13T03:06:15.540Z,3.70
2023-05-13T03:08:42.070Z,4.95
2023-05-13T03:11:08.601Z,5.53
2023-05-13T03:13:35.193Z,3.67
2023-05-13T03:16:01.758Z,3.95
2023-05-13T03:18:28.355Z,4.72
2023-05-13T03:20:54.946Z,4.97
2023-05-13T03:23:21.482Z,3.65
2023-05-13T03:25:48.012Z,4.63
2023-05-13T03:28:14.554Z,4.03
2023-05-13T03:30:41.066Z,6.18
2023-05-13T03:33:07.638Z,3.97
2023-05-13T03:35:34.159Z,4.10
2023-05-13T03:38:00.719Z,4.22
2023-05-13T03:40:27.284Z,5.00
2023-05-13T03:42:53.860Z,5.85
2023-05-13T03:45:20.403Z,3.70
2023-05-13T03:47:47.017Z,5.03
2023-05-13T03:50:13.711Z,4.68
2023-05-13T03:52:40.249Z,3.95
2023-05-13T03:55:07.039Z,4.85
2023-05-13T03:57:33.595Z,6.07
2023-05-13T04:00:00.154Z,3.88
2023-05-13T04:02:26.775Z,5.80
2023-05-13T04:04:53.432Z,7.40
2023-05-13T04:07:19.970Z,6.03
2023-05-13T04:09:46.553Z,5.15
2023-05-13T04:12:13.050Z,7.13
2023-05-13T04:14:39.580Z,4.40
2023-05-13T04:17:06.243Z,4.68
2023-05-13T04:19:32.879Z,4.80
2023-05-13T04:21:59.475Z,7.25
2023-05-13T04:24:26.021Z,6.43
2023-05-13T04:26:52.571Z,7.47
2023-05-13T04:29:19.140Z,8.20
2023-05-13T04:31:45.738Z,7.32
2023-05-13T04:34:12.304Z,5.40
2023-05-13T04:36:38.832Z,6.95
2023-05-13T04:39:05.425Z,6.00
2023-05-13T04:41:31.933Z,5.97
2023-05-13T04:43:58.561Z,6.28
2023-05-13T04:46:25.147Z,4.35
2023-05-13T04:48:51.810Z,5.57
2023-05-13T04:51:18.982Z,7.10
2023-05-13T04:53:45.896Z,5.32
2023-05-13T04:56:12.474Z,6.43
2023-05-13T04:58:39.017Z,6.35
2023-05-13T05:01:05.698Z,6.18
2023-05-13T05:03:32.331Z,7.53
2023-05-13T05:05:58.989Z,5.97
2023-05-13T05:08:25.533Z,6.45
2023-05-13T05:10:52.055Z,5.38
2023-05-13T05:13:18.667Z,7.35
2023-05-13T05:15:45.276Z,7.45
2023-05-13T05:18:11.868Z,6.30
2023-05-13T05:20:38.571Z,5.80
2023-05-13T05:23:05.170Z,6.28
2023-05-13T05:25:31.723Z,6.18
2023-05-13T05:27:58.325Z,4.53
2023-05-13T05:30:25.006Z,6.93
2023-05-13T05:32:51.710Z,7.55
2023-05-13T05:35:18.393Z,8.43
2023-05-13T05:37:45.051Z,6.72
2023-05-13T05:40:12.023Z,6.68
2023-05-13T05:42:38.570Z,5.63
2023-05-13T05:45:05.449Z,6.15
2023-05-13T05:47:32.041Z,5.35
2023-05-13T05:49:58.632Z,6.05
2023-05-13T05:52:25.206Z,5.32
2023-05-13T05:54:51.777Z,6.40
2023-05-13T05:57:18.760Z,5.35
2023-05-13T05:59:45.330Z,5.53
2023-05-13T06:02:11.994Z,4.20
2023-05-13T06:04:38.741Z,6.10
2023-05-13T06:07:05.580Z,4.30
2023-05-13T06:09:32.187Z,4.97
2023-05-13T06:11:58.777Z,8.55
2023-05-13T06:14:25.358Z,7.75
2023-05-13T06:16:53.524Z,6.75
2023-05-13T06:19:20.843Z,6.90
2023-05-13T06:21:47.367Z,4.82
2023-05-13T06:24:14.005Z,3.53
2023-05-13T06:26:40.547Z,4.75
2023-05-13T06:29:07.156Z,3.95
2023-05-13T06:31:33.695Z,5.78
2023-05-13T06:34:00.315Z,3.83
2023-05-13T06:36:26.851Z,5.13
2023-05-13T06:38:53.615Z,5.65
2023-05-13T06:41:20.074Z,4.57
2023-05-13T06:43:46.690Z,4.90
2023-05-13T06:46:13.238Z,5.95
2023-05-13T06:48:39.752Z,3.03
2023-05-13T06:51:06.305Z,3.63
2023-05-13T06:53:32.834Z,3.83
2023-05-13T06:55:59.402Z,4.70
2023-05-13T06:58:26.000Z,4.43
2023-05-13T07:00:52.543Z,3.85
2023-05-13T07:03:19.183Z,4.00
2023-05-13T07:05:45.812Z,3.95
2023-05-13T07:08:12.348Z,5.50
2023-05-13T07:10:38.897Z,4.80
2023-05-13T07:13:06.372Z,4.93
2023-05-13T07:15:32.976Z,3.70
2023-05-13T07:17:59.513Z,2.88
2023-05-13T07:20:26.155Z,2.83
2023-05-13T07:22:52.675Z,2.80
2023-05-13T07:25:19.244Z,2.38
2023-05-13T07:27:45.862Z,3.00
2023-05-13T07:30:12.710Z,5.00
2023-05-13T07:32:39.599Z,2.88
2023-05-13T07:35:06.777Z,2.40
2023-05-13T07:37:33.312Z,3.20
2023-05-13T07:39:59.855Z,2.17
2023-05-13T07:42:26.396Z,3.25
2023-05-13T07:44:52.958Z,4.28
2023-05-13T07:47:19.661Z,3.03
2023-05-13T07:49:46.414Z,2.90
2023-05-13T07:52:13.038Z,3.40
2023-05-13T07:54:39.634Z,3.30
2023-05-13T07:57:06.424Z,3.08
2023-05-13T07:59:32.999Z,2.28
2023-05-13T08:01:59.544Z,6.00
2023-05-13T08:04:26.215Z,2.83
2023-05-13T08:06:52.910Z,2.03
2023-05-13T08:09:19.548Z,2.35
2023-05-13T08:11:46.068Z,5.22
2023-05-13T08:14:12.614Z,2.13
2023-05-13T08:16:39.220Z,2.22
2023-05-13T08:19:05.912Z,2.70
2023-05-13T08:21:32.545Z,2.22
2023-05-13T08:23:59.161Z,3.15
2023-05-13T08:26:25.755Z,5.78
2023-05-13T08:28:54.755Z,2.15
2023-05-13T08:31:21.856Z,3.55
2023-05-13T08:33:48.433Z,2.17
2023-05-13T08:36:15.042Z,4.70
2023-05-13T08:38:41.558Z,2.13
2023-05-13T08:41:08.107Z,2.33
2023-05-13T08:43:34.668Z,2.25
2023-05-13T08:46:03.160Z,3.65
2023-05-13T08:48:30.059Z,2.35
2023-05-13T08:50:56.910Z,2.08
2023-05-13T08:53:23.655Z,2.80
2023-05-13T08:55:50.294Z,1.75
2023-05-13T08:58:16.845Z,3.30
2023-05-13T09:00:43.415Z,2.35
2023-05-13T09:03:10.022Z,2.30
2023-05-13T09:05:38.831Z,3.22
2023-05-13T09:08:07.744Z,1.90
2023-05-13T09:10:34.374Z,3.30
2023-05-13T09:13:00.898Z,2.55
2023-05-13T09:15:27.644Z,1.67
2023-05-13T09:18:00.331Z,2.53
2023-05-13T09:20:27.091Z,2.38
2023-05-13T09:22:58.857Z,2.28
2023-05-13T09:25:25.566Z,2.33
2023-05-13T09:27:53.655Z,1.48
2023-05-13T09:30:20.691Z,2.25
2023-05-13T09:33:12.604Z,3.25
2023-05-13T09:35:48.692Z,2.08
2023-05-13T09:38:22.414Z,1.77
2023-05-13T09:40:52.401Z,2.65
2023-05-13T09:43:23.393Z,2.10
2023-05-13T09:45:56.619Z,1.95
2023-05-13T09:48:25.332Z,3.42
2023-05-13T09:50:51.884Z,3.05
2023-05-13T09:53:18.602Z,2.08
2023-05-13T09:55:48.673Z,2.08
2023-05-13T09:58:15.242Z,2.17
2023-05-13T10:00:42.289Z,2.25
2023-05-13T10:03:09.724Z,2.17
2023-05-13T10:05:36.332Z,3.40
2023-05-13T10:08:03.097Z,2.65
2023-05-13T10:10:30.760Z,2.45
2023-05-13T10:12:59.923Z,2.30
2023-05-13T10:15:26.661Z,2.97
2023-05-13T10:17:53.255Z,4.00
2023-05-13T10:20:20.021Z,3.22
2023-05-13T10:22:46.831Z,2.55
2023-05-13T10:25:13.336Z,2.17
2023-05-13T10:27:39.920Z,2.72
2023-05-13T10:30:06.999Z,2.95
2023-05-13T10:32:33.589Z,1.63
2023-05-13T10:35:06.683Z,2.42
2023-05-13T10:37:43.618Z,2.38
2023-05-13T10:40:22.821Z,1.75
2023-05-13T10:43:39.297Z,2.72
2023-05-13T10:46:11.923Z,2.22
2023-05-13T10:48:42.640Z,1.80
2023-05-13T10:51:10.074Z,3.40
2023-05-13T10:53:43.099Z,4.70
2023-05-13T10:56:09.646Z,2.22
2023-05-13T10:58:36.247Z,2.42
2023-05-13T11:01:19.503Z,2.55
2023-05-13T11:03:53.650Z,4.25
2023-05-13T11:06:24.665Z,4.43
2023-05-13T11:08:53.083Z,1.88
2023-05-13T11:11:21.669Z,4.10
2023-05-13T11:14:00.151Z,2.22
2023-05-13T11:16:26.682Z,1.95
2023-05-13T11:18:53.285Z,4.97
2023-05-13T11:21:33.158Z,4.28
2023-05-13T11:24:04.894Z,2.17
2023-05-13T11:26:49.606Z,5.38
2023-05-13T11:29:34.788Z,3.85
2023-05-13T11:32:02.674Z,2.13
2023-05-13T11:34:29.333Z,2.70
2023-05-13T11:37:04.968Z,2.03
2023-05-13T11:39:32.854Z,1.90
2023-05-13T11:41:59.429Z,2.85
2023-05-13T11:44:26.015Z,1.95
2023-05-13T11:46:56.279Z,3.08
2023-05-13T11:49:45.083Z,2.15
2023-05-13T11:52:12.918Z,1.85
2023-05-13T11:54:50.151Z,1.67
2023-05-13T11:57:22.347Z,1.50
2023-05-13T12:00:02.568Z,4.18
2023-05-13T12:02:29.974Z,4.07
2023-05-13T12:04:59.994Z,1.90
2023-05-13T12:07:26.622Z,2.35
2023-05-13T12:09:54.273Z,1.90
2023-05-13T12:12:20.837Z,1.98
2023-05-13T12:14:47.711Z,3.58
2023-05-13T12:17:14.210Z,2.75
2023-05-13T12:19:41.028Z,1.48
2023-05-13T12:22:08.145Z,3.08
2023-05-13T12:24:34.633Z,1.88
2023-05-13T12:27:08.626Z,2.40
2023-05-13T12:29:43.265Z,2.65
2023-05-13T12:32:09.990Z,3.05
2023-05-13T12:34:36.533Z,2.30
2023-05-13T12:37:12.656Z,2.15
2023-05-13T12:39:42.284Z,1.55
2023-05-13T12:42:18.133Z,2.45
2023-05-13T12:44:44.876Z,2.50
2023-05-13T12:47:11.580Z,2.08
2023-05-13T12:49:57.780Z,1.58
2023-05-13T12:52:24.363Z,2.90
2023-05-13T12:54:50.915Z,2.10
2023-05-13T12:57:17.790Z,2.40
2023-05-13T12:59:44.761Z,4.75
2023-05-13T13:02:11.728Z,3.03
2023-05-13T13:04:38.314Z,2.20
2023-05-13T13:07:05.270Z,2.33
2023-05-13T13:09:31.887Z,3.17
2023-05-13T13:11:58.468Z,1.60
2023-05-13T13:14:25.021Z,1.67
2023-05-13T13:16:51.579Z,1.80
2023-05-13T13:19:18.188Z,1.40
2023-05-13T13:21:44.786Z,2.05
2023-05-13T13:24:11.328Z,3.40
2023-05-13T13:26:37.879Z,1.83
2023-05-13T13:29:04.442Z,2.75
2023-05-13T13:31:30.994Z,2.22
2023-05-13T13:33:57.565Z,2.05
2023-05-13T13:36:24.082Z,2.67
2023-05-13T13:38:50.645Z,1.58
2023-05-13T13:41:17.168Z,1.48
2023-05-13T13:43:43.678Z,2.83
2023-05-13T13:46:10.273Z,1.85
2023-05-13T13:48:36.814Z,1.90
2023-05-13T13:51:03.394Z,5.65
2023-05-13T13:53:29.954Z,1.45
2023-05-13T13:55:56.486Z,3.60
2023-05-13T13:58:23.002Z,2.53
2023-05-13T14:00:49.569Z,2.72
2023-05-13T14:03:16.240Z,3.90
2023-05-13T14:05:42.818Z,3.85
2023-05-13T14:08:09.384Z,1.48
2023-05-13T14:10:35.926Z,2.30
2023-05-13T14:13:02.444Z,1.70
2023-05-13T14:15:29.000Z,1.67
2023-05-13T14:17:55.638Z,1.35
2023-05-13T14:20:22.705Z,2.08
2023-05-13T14:22:49.520Z,2.75
2023-05-13T14:25:16.164Z,1.60
2023-05-13T14:27:42.701Z,1.02
2023-05-13T14:30:09.548Z,1.77
2023-05-13T14:32:36.094Z,3.45
2023-05-13T14:35:02.723Z,1.33
2023-05-13T14:37:29.303Z,1.85
2023-05-13T14:39:55.988Z,1.30
2023-05-13T14:42:22.556Z,1.83
2023-05-13T14:44:49.150Z,1.58
2023-05-13T14:47:15.676Z,2.75
2023-05-13T14:49:42.227Z,2.75
2023-05-13T14:52:08.760Z,1.42
2023-05-13T14:54:35.286Z,1.98
2023-05-13T14:57:02.991Z,1.45
2023-05-13T14:59:29.527Z,2.00
2023-05-13T15:01:56.162Z,2.17
2023-05-13T15:04:23.516Z,2.55
2023-05-13T15:06:50.029Z,1.35
2023-05-13T15:09:16.577Z,1.38
2023-05-13T15:11:43.126Z,1.48
2023-05-13T15:14:09.914Z,1.83
2023-05-13T15:16:36.515Z,1.45
2023-05-13T15:19:03.200Z,1.77
2023-05-13T15:21:29.811Z,1.95
2023-05-13T15:23:56.360Z,2.13
2023-05-13T15:26:22.944Z,4.22
2023-05-13T15:28:49.496Z,2.10
2023-05-13T15:31:16.139Z,1.40
2023-05-13T15:33:45.028Z,2.00
2023-05-13T15:36:11.775Z,1.70
2023-05-13T15:38:38.843Z,1.48
2023-05-13T15:41:05.428Z,1.75
2023-05-13T15:43:32.129Z,2.40
2023-05-13T15:45:58.866Z,1.30
2023-05-13T15:48:25.436Z,1.30
2023-05-13T15:50:52.035Z,2.22
2023-05-13T15:53:18.613Z,1.15
2023-05-13T15:55:45.132Z,3.10
2023-05-13T15:58:11.688Z,2.05
2023-05-13T16:00:38.224Z,2.40
2023-05-13T16:03:04.798Z,1.50
2023-05-13T16:05:31.388Z,2.22
2023-05-13T16:07:57.948Z,2.42
2023-05-13T16:10:24.802Z,1.73
2023-05-13T16:12:51.593Z,1.67
2023-05-13T16:15:18.208Z,1.92
2023-05-13T16:17:44.768Z,1.48
2023-05-13T16:20:19.737Z,2.75
2023-05-13T16:22:46.376Z,2.30
2023-05-13T16:25:12.933Z,1.60
2023-05-13T16:27:39.828Z,2.40
2023-05-13T16:30:07.148Z,1.65
2023-05-13T16:32:33.778Z,2.38
2023-05-13T16:35:00.510Z,1.60
2023-05-13T16:37:27.425Z,1.60
2023-05-13T16:39:53.979Z,1.40
2023-05-13T16:42:20.525Z,1.33
2023-05-13T16:44:47.312Z,1.45
2023-05-13T16:47:13.980Z,1.60
2023-05-13T16:49:40.584Z,1.73
2023-05-13T16:52:07.340Z,1.77
2023-05-13T16:54:34.010Z,1.98
2023-05-13T16:57:00.594Z,1.40
2023-05-13T16:59:27.590Z,2.05
2023-05-13T17:01:54.493Z,2.38
2023-05-13T17:04:21.112Z,1.65
2023-05-13T17:06:47.858Z,2.05
2023-05-13T17:09:14.415Z,1.90
2023-05-13T17:11:41.000Z,2.00
2023-05-13T17:14:07.558Z,1.40
2023-05-13T17:16:34.102Z,1.35
2023-05-13T17:19:00.708Z,3.20
2023-05-13T17:21:27.244Z,2.65
2023-05-13T17:23:53.744Z,3.05
2023-05-13T17:26:20.342Z,1.33
2023-05-13T17:28:46.888Z,2.17
2023-05-13T17:31:13.556Z,1.67
2023-05-13T17:33:40.119Z,2.53
2023-05-13T17:36:07.042Z,1.80
2023-05-13T17:38:33.608Z,1.45
2023-05-13T17:41:00.164Z,1.60
2023-05-13T17:43:26.755Z,1.40
2023-05-13T17:45:53.279Z,1.30
2023-05-13T17:48:19.894Z,1.70
2023-05-13T17:50:46.691Z,1.90
2023-05-13T17:53:13.249Z,1.52
2023-05-13T17:55:39.787Z,1.73
2023-05-13T17:58:06.333Z,1.45
2023-05-13T18:00:33.031Z,1.50
2023-05-13T18:02:59.680Z,1.75
2023-05-13T18:05:26.340Z,1.83
2023-05-13T18:07:52.992Z,2.42
2023-05-13T18:10:19.734Z,1.52
2023-05-13T18:12:46.436Z,2.03
2023-05-13T18:15:12.937Z,3.22
2023-05-13T18:17:39.707Z,2.25
2023-05-13T18:20:06.961Z,2.58
2023-05-13T18:22:33.531Z,3.17
2023-05-13T18:25:00.055Z,1.55
2023-05-13T18:27:26.615Z,1.60
2023-05-13T18:29:53.167Z,1.23
2023-05-13T18:32:19.689Z,2.35
2023-05-13T18:34:46.220Z,1.92
2023-05-13T18:37:12.767Z,1.60
2023-05-13T18:39:39.320Z,3.00
2023-05-13T18:42:06.150Z,3.08
2023-05-13T18:44:32.694Z,1.83
2023-05-13T18:46:59.221Z,2.00
2023-05-13T18:49:25.823Z,1.90
2023-05-13T18:51:52.391Z,1.65
2023-05-13T18:54:18.897Z,1.83
2023-05-13T18:56:45.472Z,2.58
2023-05-13T18:59:12.957Z,1.73
2023-05-13T19:01:39.563Z,2.03
2023-05-13T19:04:06.365Z,2.20
2023-05-13T19:06:35.064Z,3.05
2023-05-13T19:09:01.622Z,2.00
2023-05-13T19:11:28.160Z,1.73
2023-05-13T19:13:54.734Z,2.75
2023-05-13T19:16:21.409Z,3.60
2023-05-13T19:18:48.028Z,2.92
2023-05-13T19:21:14.643Z,2.28
2023-05-13T19:23:41.163Z,2.10
2023-05-13T19:26:07.750Z,2.05
2023-05-13T19:28:34.606Z,1.75
2023-05-13T19:31:01.172Z,2.90
2023-05-13T19:33:27.732Z,3.03
2023-05-13T19:35:54.286Z,2.28
2023-05-13T19:38:20.896Z,3.00
2023-05-13T19:40:47.415Z,2.83
2023-05-13T19:43:14.303Z,2.00
2023-05-13T19:45:40.805Z,3.45
2023-05-13T19:48:07.398Z,2.17
2023-05-13T19:50:34.001Z,2.45
2023-05-13T19:53:00.584Z,4.22
2023-05-13T19:55:27.080Z,3.55
2023-05-13T19:57:53.627Z,2.95
2023-05-13T20:00:20.182Z,2.50
2023-05-13T22:01:34.050Z,2.47
2023-05-13T22:04:00.605Z,3.47
2023-05-13T22:06:27.140Z,3.00
2023-05-13T22:08:53.731Z,2.97
2023-05-13T22:11:20.309Z,3.95
2023-05-13T22:13:46.865Z,3.55
2023-05-13T22:16:13.626Z,4.47
2023-05-13T22:18:41.104Z,2.42
2023-05-13T22:21:07.815Z,4.00
2023-05-13T22:23:34.335Z,3.15
2023-05-13T22:26:00.927Z,5.65
2023-05-13T22:28:27.496Z,2.90
2023-05-13T22:30:54.045Z,3.85
2023-05-13T22:33:20.600Z,3.38
2023-05-13T22:35:47.196Z,3.70
2023-05-13T22:38:13.743Z,3.17
2023-05-13T22:40:40.329Z,4.25
2023-05-13T22:43:06.860Z,3.10
2023-05-13T22:45:33.427Z,2.88
2023-05-13T22:48:00.063Z,3.40
2023-05-13T22:50:26.678Z,2.63
2023-05-13T22:52:53.298Z,4.43
2023-05-13T22:55:19.837Z,3.33
2023-05-13T22:57:46.405Z,3.63
2023-05-13T23:00:13.432Z,2.83
2023-05-13T23:02:40.088Z,2.83
2023-05-13T23:05:06.859Z,3.53
2023-05-13T23:07:33.427Z,3.65
2023-05-13T23:09:59.939Z,2.85
2023-05-13T23:12:26.536Z,4.28
2023-05-13T23:14:54.285Z,3.38
2023-05-13T23:17:20.902Z,2.45
2023-05-13T23:19:47.465Z,3.70
2023-05-13T23:22:14.019Z,3.42
2023-05-13T23:24:40.559Z,2.63
2023-05-13T23:27:07.129Z,2.10
2023-05-13T23:29:33.675Z,2.83
2023-05-13T23:32:00.283Z,3.00
2023-05-13T23:34:26.829Z,2.15
2023-05-13T23:36:53.405Z,2.65
2023-05-13T23:39:19.958Z,2.58
2023-05-13T23:41:46.555Z,3.88
2023-05-13T23:44:13.093Z,2.25
2023-05-13T23:46:39.625Z,2.00
2023-05-13T23:49:06.191Z,3.65
2023-05-13T23:51:32.730Z,3.25
2023-05-13T23:53:59.279Z,5.20
2023-05-13T23:56:25.850Z,3.90
2023-05-13T23:58:52.440Z,2.35
